Time;durP1;ratioP1;P1;durP2;ratioP2;P2;SDS_P1;SDS_P2;PMS_P1;PMS_P2;Temp;Humidity;BMP_temperature;BMP_pressure;BME280_temperature;BME280_humidity;BME280_pressure;Samples;Min_cycle;Max_cycle;Signal;HPM_P1;HPM_P2
2022/09/29 00:00:53;;;;;;;7.30;1.13;;;14.50;99.90;;;;;;4945101;29;20028;-81
2022/09/29 00:03:20;;;;;;;8.90;1.48;;;14.50;99.90;;;;;;4945082;29;20074;-81
2022/09/29 00:05:48;;;;;;;9.35;1.77;;;14.50;99.90;;;;;;4945338;29;20248;-80
2022/09/29 00:08:15;;;;;;;7.88;1.15;;;14.50;99.90;;;;;;4945104;29;20039;-80
2022/09/29 00:10:40;;;;;;;11.48;0.95;;;14.50;99.90;;;;;;4944921;29;20023;-80
2022/09/29 00:13:06;;;;;;;11.00;1.58;;;14.50;99.90;;;;;;4945345;29;20023;-80
2022/09/29 00:15:32;;;;;;;8.30;1.00;;;14.50;99.90;;;;;;4945099;29;20032;-80
2022/09/29 00:17:57;;;;;;;10.32;2.33;;;14.40;99.90;;;;;;4944412;29;20327;-81
2022/09/29 00:20:23;;;;;;;4.78;0.90;;;14.40;99.90;;;;;;4945386;29;20019;-80
2022/09/29 00:22:50;;;;;;;6.13;0.95;;;14.40;99.90;;;;;;4945287;29;20023;-80
2022/09/29 00:25:16;;;;;;;8.13;0.80;;;14.40;99.90;;;;;;4944440;29;20023;-80
2022/09/29 00:27:42;;;;;;;5.95;1.30;;;14.30;99.90;;;;;;4944913;29;20371;-81
2022/09/29 00:30:08;;;;;;;6.57;0.80;;;14.30;99.90;;;;;;4945454;29;20094;-80
2022/09/29 00:32:33;;;;;;;10.32;1.50;;;14.30;99.90;;;;;;4933183;29;20572;-81
2022/09/29 00:34:59;;;;;;;6.28;0.90;;;14.20;99.90;;;;;;4934379;29;20331;-82
2022/09/29 00:37:25;;;;;;;6.35;1.17;;;14.30;99.90;;;;;;4941381;29;20405;-80
2022/09/29 00:39:52;;;;;;;7.63;1.10;;;14.20;99.90;;;;;;4942430;29;20035;-80
2022/09/29 00:42:19;;;;;;;4.60;0.88;;;14.20;99.90;;;;;;4943948;29;20012;-80
2022/09/29 00:45:15;;;;;;;8.05;1.00;;;14.20;99.90;;;;;;4944626;29;20316;-80
2022/09/29 00:47:43;;;;;;;8.43;1.55;;;14.20;99.90;;;;;;4941493;29;20346;-80
2022/09/29 00:50:13;;;;;;;8.10;1.02;;;14.20;99.90;;;;;;4944181;29;20023;-80
2022/09/29 00:52:43;;;;;;;5.55;1.13;;;14.20;99.90;;;;;;4943814;29;20091;-80
2022/09/29 00:55:33;;;;;;;8.45;0.90;;;14.10;99.90;;;;;;4944607;29;20047;-80
2022/09/29 00:58:11;;;;;;;8.20;1.05;;;14.10;99.90;;;;;;4943692;29;20019;-80
2022/09/29 01:00:37;;;;;;;9.95;1.15;;;14.10;99.90;;;;;;4944084;29;20028;-80
2022/09/29 01:03:14;;;;;;;9.88;1.40;;;14.10;99.90;;;;;;4944123;29;20055;-80
2022/09/29 01:05:45;;;;;;;7.40;1.02;;;14.00;99.90;;;;;;4943141;29;20038;-80
2022/09/29 01:08:29;;;;;;;5.05;1.33;;;14.10;99.90;;;;;;4943370;29;20039;-80
2022/09/29 01:10:56;;;;;;;11.23;1.65;;;14.10;99.90;;;;;;4937995;29;20020;-80
2022/09/29 01:13:23;;;;;;;8.32;1.75;;;14.00;99.90;;;;;;4943101;29;20051;-81
2022/09/29 01:15:49;;;;;;;6.72;1.67;;;14.00;99.90;;;;;;4939892;29;20229;-80
2022/09/29 01:18:15;;;;;;;10.15;1.30;;;14.00;99.90;;;;;;4943911;29;20080;-80
2022/09/29 01:21:05;;;;;;;7.75;1.40;;;14.10;99.90;;;;;;4944169;29;20027;-80
2022/09/29 01:23:45;;;;;;;13.18;1.75;;;14.10;99.90;;;;;;4954385;29;20039;-80
2022/09/29 01:26:54;;;;;;;6.78;1.30;;;14.20;99.90;;;;;;4949930;29;20035;-80
2022/09/29 01:29:32;;;;;;;5.13;1.00;;;14.30;99.90;;;;;;4941658;29;20354;-80
2022/09/29 01:32:03;;;;;;;6.90;1.55;;;14.30;99.90;;;;;;4930920;29;20194;-80
2022/09/29 01:34:41;;;;;;;5.72;1.20;;;14.30;99.90;;;;;;4935691;29;20071;-81
2022/09/29 01:37:43;;;;;;;9.52;1.52;;;14.30;99.90;;;;;;4944413;29;20025;-80
2022/09/29 01:40:21;;;;;;;10.25;1.80;;;14.30;99.90;;;;;;4941757;29;20023;-81
2022/09/29 01:43:16;;;;;;;8.43;1.27;;;14.30;99.90;;;;;;4941734;29;20023;-83
2022/09/29 01:46:11;;;;;;;6.72;1.00;;;14.40;99.90;;;;;;4942245;29;20035;-80
2022/09/29 01:48:47;;;;;;;8.93;1.08;;;14.30;99.90;;;;;;4936524;29;20090;-85
2022/09/29 01:51:18;;;;;;;8.48;1.50;;;14.40;99.90;;;;;;4935658;29;20370;-81
2022/09/29 01:53:51;;;;;;;6.68;1.13;;;14.40;99.90;;;;;;4930631;29;20485;-81
2022/09/29 01:56:25;;;;;;;5.72;1.23;;;14.40;99.90;;;;;;4939536;29;20019;-81
2022/09/29 01:59:01;;;;;;;4.72;0.90;;;14.40;99.90;;;;;;4943845;29;20099;-80
2022/09/29 02:01:33;;;;;;;5.60;0.82;;;14.30;99.90;;;;;;4943966;29;20086;-80
2022/09/29 02:04:08;;;;;;;4.68;0.90;;;14.30;99.90;;;;;;4941253;29;20625;-81
2022/09/29 02:06:40;;;;;;;4.60;0.70;;;14.30;99.90;;;;;;4950069;29;20039;-81
2022/09/29 02:09:15;;;;;;;6.22;0.80;;;14.30;99.90;;;;;;4943817;29;20034;-81
2022/09/29 02:11:41;;;;;;;4.75;0.88;;;14.30;99.90;;;;;;4944675;29;20073;-80
2022/09/29 02:14:13;;;;;;;7.20;0.90;;;14.30;99.90;;;;;;4947787;29;20034;-80
2022/09/29 02:16:46;;;;;;;5.53;1.02;;;14.30;99.90;;;;;;4960005;29;20031;-80
2022/09/29 02:19:25;;;;;;;6.25;0.73;;;14.30;99.90;;;;;;4942047;29;20335;-80
2022/09/29 02:21:54;;;;;;;4.80;0.70;;;14.30;99.90;;;;;;4944435;29;20031;-81
2022/09/29 02:24:21;;;;;;;6.18;0.88;;;14.30;99.90;;;;;;4945202;29;20027;-80
2022/09/29 02:26:47;;;;;;;11.77;1.33;;;14.30;99.90;;;;;;4950637;29;20276;-80
2022/09/29 02:29:13;;;;;;;5.18;0.77;;;14.30;99.90;;;;;;4937069;29;20071;-81
2022/09/29 02:31:39;;;;;;;11.82;1.42;;;14.30;99.90;;;;;;4946932;29;20082;-81
2022/09/29 02:34:09;;;;;;;4.90;0.90;;;14.20;99.90;;;;;;4947532;29;20054;-80
2022/09/29 02:36:57;;;;;;;5.38;0.77;;;14.20;99.90;;;;;;4947126;29;20031;-80
2022/09/29 02:39:49;;;;;;;3.17;0.63;;;14.20;99.90;;;;;;4940772;29;20220;-80
2022/09/29 02:42:43;;;;;;;8.75;0.98;;;14.10;99.90;;;;;;4931747;29;20047;-80
2022/09/29 02:45:23;;;;;;;9.73;1.23;;;14.10;99.90;;;;;;4947207;29;20319;-81
2022/09/29 02:47:54;;;;;;;5.38;0.90;;;14.10;99.90;;;;;;4944589;29;20327;-80
2022/09/29 02:50:41;;;;;;;6.93;0.95;;;14.10;99.90;;;;;;4945769;29;20082;-80
2022/09/29 02:53:37;;;;;;;3.33;0.57;;;14.10;99.90;;;;;;4947337;29;20031;-80
2022/09/29 02:56:18;;;;;;;6.80;1.02;;;14.10;99.90;;;;;;4944180;29;20024;-81
2022/09/29 02:59:02;;;;;;;8.60;1.10;;;14.10;99.90;;;;;;4941521;29;20047;-81
2022/09/29 03:01:32;;;;;;;7.00;0.90;;;14.10;99.90;;;;;;4946891;29;20040;-80
2022/09/29 03:03:59;;;;;;;7.03;0.85;;;14.00;99.90;;;;;;4947043;29;20099;-80
2022/09/29 03:06:24;;;;;;;6.95;0.88;;;14.10;99.90;;;;;;4946907;29;20026;-80
2022/09/29 03:08:50;;;;;;;6.72;1.00;;;14.10;99.90;;;;;;4947010;29;20043;-81
2022/09/29 03:11:16;;;;;;;4.43;0.47;;;14.10;99.90;;;;;;4946086;29;20023;-80
2022/09/29 03:13:41;;;;;;;7.10;0.90;;;14.00;99.90;;;;;;4946154;29;20227;-80
2022/09/29 03:16:07;;;;;;;7.13;0.82;;;14.00;99.90;;;;;;4946444;29;20039;-80
2022/09/29 03:18:33;;;;;;;5.47;1.00;;;14.00;99.90;;;;;;4946854;29;20327;-80
2022/09/29 03:20:58;;;;;;;3.17;0.70;;;14.00;99.90;;;;;;4946655;29;20149;-81
2022/09/29 03:23:24;;;;;;;5.47;0.80;;;14.00;99.90;;;;;;4942768;29;20036;-81
2022/09/29 03:25:49;;;;;;;4.60;0.60;;;14.00;99.90;;;;;;4942385;29;20027;-81
2022/09/29 03:28:15;;;;;;;6.45;0.88;;;13.90;99.90;;;;;;4943115;29;20255;-81
2022/09/29 03:30:41;;;;;;;4.57;1.13;;;13.90;99.90;;;;;;4946192;29;20220;-81
2022/09/29 03:33:07;;;;;;;5.60;1.15;;;13.90;99.90;;;;;;4946884;29;20030;-80
2022/09/29 03:35:32;;;;;;;5.78;0.98;;;13.90;99.90;;;;;;4946402;29;20031;-80
2022/09/29 03:37:59;;;;;;;6.97;0.95;;;13.90;99.90;;;;;;4946051;29;20047;-80
2022/09/29 03:40:25;;;;;;;5.68;0.77;;;13.90;99.90;;;;;;4945971;29;20079;-81
2022/09/29 03:42:51;;;;;;;5.18;0.80;;;13.90;99.90;;;;;;4945892;29;20035;-81
2022/09/29 03:45:16;;;;;;;6.75;1.02;;;13.90;99.90;;;;;;4945694;29;20035;-80
2022/09/29 03:47:42;;;;;;;5.38;0.90;;;13.90;99.90;;;;;;4945875;29;20197;-80
2022/09/29 03:50:08;;;;;;;6.35;0.73;;;13.90;99.90;;;;;;4946212;29;20109;-80
2022/09/29 03:52:33;;;;;;;4.93;0.80;;;13.90;99.90;;;;;;4946161;29;20082;-81
2022/09/29 03:54:59;;;;;;;4.70;1.63;;;13.90;99.90;;;;;;4945819;29;20082;-80
2022/09/29 03:57:25;;;;;;;2.47;0.75;;;13.90;99.90;;;;;;4933683;29;20012;-80
2022/09/29 03:59:52;;;;;;;3.30;0.68;;;13.80;99.90;;;;;;4943260;29;20031;-80
2022/09/29 04:02:18;;;;;;;3.50;0.60;;;13.90;99.90;;;;;;4945902;29;20058;-80
2022/09/29 04:04:44;;;;;;;7.75;1.27;;;13.80;99.90;;;;;;4943554;29;20350;-81
2022/09/29 04:07:10;;;;;;;5.10;0.98;;;13.80;99.90;;;;;;4942085;29;20058;-80
2022/09/29 04:09:36;;;;;;;4.50;1.00;;;13.80;99.90;;;;;;4945641;29;20031;-81
2022/09/29 04:12:01;;;;;;;4.85;0.88;;;13.70;99.90;;;;;;4945499;29;20012;-80
2022/09/29 04:14:27;;;;;;;4.57;1.00;;;13.70;99.90;;;;;;4930983;29;20043;-81
2022/09/29 04:16:53;;;;;;;4.95;0.80;;;13.70;99.90;;;;;;4945649;29;20011;-81
2022/09/29 04:19:18;;;;;;;6.32;1.00;;;13.70;99.90;;;;;;4945697;29;20027;-80
2022/09/29 04:21:44;;;;;;;3.83;0.80;;;13.70;99.90;;;;;;4945110;29;20032;-80
2022/09/29 04:24:10;;;;;;;7.00;0.90;;;13.60;99.90;;;;;;4943399;29;20047;-80
2022/09/29 04:26:36;;;;;;;5.35;0.90;;;13.60;99.90;;;;;;4945360;29;20046;-82
2022/09/29 04:29:01;;;;;;;6.05;0.90;;;13.70;99.90;;;;;;4942575;29;20035;-81
2022/09/29 04:31:27;;;;;;;7.80;0.98;;;13.60;99.90;;;;;;4933909;29;20039;-81
2022/09/29 04:33:53;;;;;;;3.13;0.75;;;13.60;99.90;;;;;;4941051;29;20094;-82
2022/09/29 04:36:19;;;;;;;5.30;1.00;;;13.60;99.90;;;;;;4939521;29;20468;-82
2022/09/29 04:38:44;;;;;;;6.15;1.00;;;13.70;99.90;;;;;;4937159;29;20449;-82
2022/09/29 04:41:10;;;;;;;5.13;0.60;;;13.70;99.90;;;;;;4933535;29;20047;-81
2022/09/29 04:43:35;;;;;;;4.82;0.98;;;13.70;99.90;;;;;;4933254;29;20023;-81
2022/09/29 04:46:06;;;;;;;8.38;2.00;;;13.70;99.90;;;;;;4933426;29;20023;-81
2022/09/29 04:48:32;;;;;;;9.32;1.40;;;13.70;99.90;;;;;;4933215;29;20484;-81
2022/09/29 04:50:58;;;;;;;10.15;1.05;;;13.70;99.90;;;;;;4933533;29;20030;-81
2022/09/29 04:53:23;;;;;;;7.18;1.05;;;13.60;99.90;;;;;;4933185;29;20039;-81
2022/09/29 04:55:49;;;;;;;8.73;1.13;;;13.60;99.90;;;;;;4938909;29;20034;-81
2022/09/29 04:58:14;;;;;;;6.82;1.10;;;13.50;99.90;;;;;;4943184;29;20243;-81
2022/09/29 05:00:40;;;;;;;6.43;1.00;;;13.50;99.90;;;;;;4942724;29;20019;-81
2022/09/29 05:03:06;;;;;;;5.55;0.85;;;13.40;99.90;;;;;;4933852;29;20043;-81
2022/09/29 05:05:31;;;;;;;6.80;1.13;;;13.40;99.90;;;;;;4929819;29;20062;-81
2022/09/29 05:07:58;;;;;;;7.35;1.20;;;13.30;99.90;;;;;;4924439;29;20387;-81
2022/09/29 05:10:24;;;;;;;7.30;1.15;;;13.30;99.90;;;;;;4928221;29;20012;-81
2022/09/29 05:12:51;;;;;;;6.38;0.98;;;13.20;99.90;;;;;;4923814;29;20031;-81
2022/09/29 05:15:18;;;;;;;6.10;1.38;;;13.20;99.90;;;;;;4924059;29;20083;-81
2022/09/29 05:17:44;;;;;;;4.80;1.02;;;13.10;99.90;;;;;;4924576;29;20072;-81
2022/09/29 05:20:10;;;;;;;8.65;1.45;;;13.10;99.90;;;;;;4928044;29;20036;-81
2022/09/29 05:22:36;;;;;;;6.18;0.70;;;13.10;99.90;;;;;;4925007;29;20252;-81
2022/09/29 05:25:01;;;;;;;6.53;1.13;;;13.10;99.90;;;;;;4923928;29;20292;-81
2022/09/29 05:27:27;;;;;;;6.93;0.90;;;13.10;99.90;;;;;;4924763;29;20342;-81
2022/09/29 05:29:53;;;;;;;7.88;1.33;;;13.10;99.90;;;;;;4922634;29;20055;-80
2022/09/29 05:32:18;;;;;;;4.82;0.90;;;13.00;99.90;;;;;;4932641;29;20024;-81
2022/09/29 05:34:44;;;;;;;5.93;1.13;;;13.00;99.90;;;;;;4928178;29;20363;-81
2022/09/29 05:37:10;;;;;;;5.45;0.90;;;13.00;99.90;;;;;;4926162;29;20087;-81
2022/09/29 05:39:36;;;;;;;3.17;0.77;;;13.10;99.90;;;;;;4927649;29;20308;-81
2022/09/29 05:42:10;;;;;;;4.60;1.13;;;13.00;99.90;;;;;;4921351;29;20319;-81
2022/09/29 05:44:36;;;;;;;7.10;1.45;;;13.10;99.90;;;;;;4913864;29;20032;-82
2022/09/29 05:47:01;;;;;;;6.45;1.25;;;13.10;99.90;;;;;;4912079;29;20405;-81
2022/09/29 05:49:29;;;;;;;5.82;1.13;;;13.10;99.90;;;;;;4913935;29;20114;-81
2022/09/29 05:51:55;;;;;;;6.93;0.93;;;13.10;99.90;;;;;;4916005;29;20433;-82
2022/09/29 05:54:21;;;;;;;5.50;0.88;;;13.10;99.90;;;;;;4922530;29;20032;-81
2022/09/29 05:56:47;;;;;;;8.60;1.35;;;13.10;99.90;;;;;;4921386;29;20031;-81
2022/09/29 05:59:12;;;;;;;6.03;1.50;;;13.10;99.90;;;;;;4913381;29;20036;-81
2022/09/29 06:01:38;;;;;;;3.38;1.48;;;13.10;99.90;;;;;;4915739;29;20429;-81
2022/09/29 06:04:04;;;;;;;8.52;1.52;;;13.10;99.90;;;;;;4921065;29;20028;-81
2022/09/29 06:06:29;;;;;;;6.10;1.10;;;13.10;99.90;;;;;;4920138;29;20505;-81
2022/09/29 06:08:57;;;;;;;5.72;1.25;;;13.10;99.90;;;;;;4899280;29;20505;-81
2022/09/29 06:11:28;;;;;;;5.68;1.05;;;13.10;99.90;;;;;;4907238;29;20031;-81
2022/09/29 06:13:54;;;;;;;8.25;1.58;;;13.10;99.90;;;;;;4921102;29;20063;-81
2022/09/29 06:16:28;;;;;;;10.20;1.48;;;13.10;99.90;;;;;;4926335;29;20027;-81
2022/09/29 06:18:54;;;;;;;3.67;0.98;;;13.10;99.90;;;;;;4924322;29;20030;-81
2022/09/29 06:21:26;;;;;;;7.95;1.02;;;13.00;99.90;;;;;;4928365;29;20036;-81
2022/09/29 06:23:56;;;;;;;5.70;1.55;;;13.00;99.90;;;;;;4930391;29;20097;-81
2022/09/29 06:26:23;;;;;;;6.32;1.33;;;12.90;99.90;;;;;;4932175;29;20299;-81
2022/09/29 06:28:49;;;;;;;5.22;1.30;;;12.90;99.90;;;;;;4922418;29;20106;-81
2022/09/29 06:31:19;;;;;;;9.60;1.25;;;12.90;99.90;;;;;;4921079;29;20454;-81
2022/09/29 06:33:45;;;;;;;11.40;1.45;;;13.00;99.90;;;;;;4923426;29;20114;-81
2022/09/29 06:39:00;;;;;;;8.00;1.30;;;12.90;99.90;;;;;;4916831;29;20088;-81
2022/09/29 06:41:28;;;;;;;12.02;1.20;;;13.00;99.90;;;;;;4929312;29;20012;-81
2022/09/29 06:43:54;;;;;;;19.80;1.42;;;13.00;99.90;;;;;;4913360;29;20062;-81
2022/09/29 06:46:20;;;;;;;7.50;1.42;;;13.00;99.90;;;;;;4930575;29;20059;-81
2022/09/29 06:48:46;;;;;;;7.10;1.25;;;13.00;99.90;;;;;;4931028;29;20046;-81
2022/09/29 06:51:13;;;;;;;8.35;1.38;;;13.00;99.90;;;;;;4932007;29;20110;-81
2022/09/29 06:53:39;;;;;;;13.55;1.67;;;13.10;99.90;;;;;;4921082;29;20072;-82
2022/09/29 06:56:07;;;;;;;6.30;1.73;;;13.10;99.90;;;;;;4921870;29;20024;-81
2022/09/29 06:58:33;;;;;;;17.17;2.33;;;13.20;99.90;;;;;;4928297;29;20031;-81
2022/09/29 07:01:00;;;;;;;18.98;2.75;;;13.30;99.90;;;;;;4911927;29;20023;-81
2022/09/29 07:03:27;;;;;;;13.85;2.50;;;13.40;99.90;;;;;;4942172;29;20615;-81
2022/09/29 07:05:52;;;;;;;15.73;2.60;;;13.50;99.90;;;;;;4936908;29;20020;-81
2022/09/29 07:08:18;;;;;;;10.98;1.80;;;13.60;99.90;;;;;;4935781;29;20055;-81
2022/09/29 07:10:45;;;;;;;10.25;1.50;;;13.70;99.90;;;;;;4935524;29;20501;-81
2022/09/29 07:13:11;;;;;;;7.90;1.77;;;13.80;99.90;;;;;;4937925;29;20323;-82
2022/09/29 07:15:36;;;;;;;12.68;2.65;;;13.90;99.90;;;;;;4935871;29;20279;-81
2022/09/29 07:18:03;;;;;;;7.43;1.95;;;14.00;99.90;;;;;;4938207;29;20055;-81
2022/09/29 07:20:30;;;;;;;9.48;1.73;;;14.10;99.90;;;;;;4935587;29;20024;-81
2022/09/29 07:22:57;;;;;;;13.93;2.58;;;14.20;99.90;;;;;;4938429;29;20024;-82
2022/09/29 07:25:23;;;;;;;12.73;2.42;;;14.20;99.90;;;;;;4935276;29;20175;-81
2022/09/29 07:27:50;;;;;;;12.77;2.50;;;14.20;99.90;;;;;;4935152;29;20038;-81
2022/09/29 07:30:16;;;;;;;12.15;2.10;;;14.30;99.90;;;;;;4918071;29;20416;-81
2022/09/29 07:32:42;;;;;;;7.90;1.92;;;14.20;99.90;;;;;;4935404;29;20012;-81
2022/09/29 07:35:07;;;;;;;9.35;2.20;;;14.20;99.90;;;;;;4939524;29;20043;-81
2022/09/29 07:37:33;;;;;;;11.43;2.05;;;14.20;99.90;;;;;;4935450;29;20035;-81
2022/09/29 07:39:59;;;;;;;14.07;1.73;;;14.20;99.90;;;;;;4939909;29;20378;-81
2022/09/29 07:42:26;;;;;;;13.23;2.30;;;14.20;99.90;;;;;;4935023;29;20028;-81
2022/09/29 07:44:52;;;;;;;12.68;1.70;;;14.30;99.90;;;;;;4940286;29;20028;-81
2022/09/29 07:47:18;;;;;;;6.72;1.17;;;14.30;99.90;;;;;;4945129;29;20389;-81
2022/09/29 07:49:44;;;;;;;6.78;1.10;;;14.30;99.90;;;;;;4935002;29;20039;-81
2022/09/29 07:52:11;;;;;;;3.45;0.80;;;14.40;99.90;;;;;;4935039;29;20054;-81
2022/09/29 07:54:37;;;;;;;10.60;1.77;;;14.40;99.90;;;;;;4935104;29;20032;-81
2022/09/29 07:57:03;;;;;;;5.65;0.95;;;14.40;99.90;;;;;;4934945;29;20150;-81
2022/09/29 07:59:29;;;;;;;5.30;1.08;;;14.40;99.90;;;;;;4934923;29;20035;-82
2022/09/29 08:01:55;;;;;;;6.35;0.75;;;14.40;99.90;;;;;;4934748;29;20083;-82
2022/09/29 08:04:21;;;;;;;6.65;1.00;;;14.40;99.90;;;;;;4934705;29;20020;-81
2022/09/29 08:06:47;;;;;;;7.10;0.60;;;14.40;99.90;;;;;;4934573;29;20028;-81
2022/09/29 08:09:13;;;;;;;5.47;1.10;;;14.40;99.90;;;;;;4933802;29;20035;-82
2022/09/29 08:11:41;;;;;;;4.97;1.00;;;14.40;99.90;;;;;;4929625;29;20088;-82
2022/09/29 08:14:08;;;;;;;7.57;0.75;;;14.50;99.90;;;;;;4934687;29;20078;-81
2022/09/29 08:16:34;;;;;;;5.13;0.60;;;14.70;99.90;;;;;;4934604;29;20027;-81
2022/09/29 08:19:00;;;;;;;8.27;0.95;;;14.80;99.90;;;;;;4934580;29;20028;-81
2022/09/29 08:21:27;;;;;;;5.93;0.65;;;14.70;99.90;;;;;;4934686;29;20080;-81
2022/09/29 08:23:52;;;;;;;4.68;0.63;;;14.60;99.90;;;;;;4934379;29;20031;-81
2022/09/29 08:26:21;;;;;;;2.60;0.45;;;14.60;99.90;;;;;;4934487;29;20023;-81
2022/09/29 08:28:47;;;;;;;9.95;1.00;;;14.70;99.90;;;;;;4919658;29;20060;-81
2022/09/29 08:31:19;;;;;;;3.20;0.60;;;14.70;99.90;;;;;;4934130;29;20031;-81
2022/09/29 08:33:48;;;;;;;3.65;0.52;;;14.60;99.90;;;;;;4934229;29;20072;-81
2022/09/29 08:36:15;;;;;;;3.25;0.55;;;14.70;99.90;;;;;;4925913;29;20095;-82
2022/09/29 08:38:45;;;;;;;4.25;0.73;;;14.90;99.90;;;;;;4934205;29;20027;-81
2022/09/29 08:41:32;;;;;;;4.30;0.70;;;15.10;99.90;;;;;;4934073;29;20031;-82
2022/09/29 08:44:21;;;;;;;4.72;0.50;;;15.30;99.90;;;;;;4933979;29;20027;-81
2022/09/29 08:46:52;;;;;;;2.78;0.50;;;15.50;99.90;;;;;;4930689;29;20038;-81
2022/09/29 08:49:34;;;;;;;2.08;0.52;;;15.60;99.90;;;;;;4946181;29;20107;-82
2022/09/29 08:52:08;;;;;;;2.92;0.50;;;15.70;99.90;;;;;;4933859;29;20027;-82
2022/09/29 08:54:38;;;;;;;3.45;0.40;;;15.90;99.90;;;;;;4933979;29;20531;-81
2022/09/29 08:57:06;;;;;;;3.40;0.47;;;15.90;99.90;;;;;;4933551;29;20039;-81
2022/09/29 08:59:32;;;;;;;5.03;0.50;;;16.00;99.90;;;;;;4933540;29;20012;-82
2022/09/29 09:02:23;;;;;;;8.65;0.75;;;16.00;99.90;;;;;;4933587;29;20397;-82
2022/09/29 09:05:23;;;;;;;11.48;1.38;;;16.00;99.90;;;;;;4928979;29;20055;-82
2022/09/29 09:08:38;;;;;;;6.28;0.75;;;16.00;99.90;;;;;;4933570;29;20035;-82
2022/09/29 09:11:32;;;;;;;2.67;0.40;;;16.10;99.90;;;;;;4837233;29;20134;-81
2022/09/29 09:14:25;;;;;;;3.40;0.77;;;16.20;99.90;;;;;;4931431;29;20043;-81
2022/09/29 09:17:00;;;;;;;5.38;0.80;;;16.30;99.90;;;;;;4933460;29;20026;-81
2022/09/29 09:19:31;;;;;;;;;;;16.50;99.90;;;;;;4928858;29;20074;-81
2022/09/29 09:22:23;;;;;;;4.07;0.40;;;16.60;99.90;;;;;;4933246;29;19985;-82
2022/09/29 09:24:58;;;;;;;4.93;0.60;;;16.70;99.90;;;;;;4933643;29;20103;-82
2022/09/29 09:27:37;;;;;;;2.58;0.50;;;17.00;99.90;;;;;;4933300;29;20019;-81
2022/09/29 09:30:14;;;;;;;4.57;0.82;;;17.20;99.90;;;;;;4933186;29;20509;-81
2022/09/29 09:32:54;;;;;;;2.78;0.50;;;17.20;99.90;;;;;;4933070;29;20421;-82
2022/09/29 09:35:26;;;;;;;3.65;0.60;;;17.10;99.90;;;;;;4942805;29;20086;-82
2022/09/29 09:37:55;;;;;;;5.75;0.40;;;16.90;99.90;;;;;;4933194;29;20449;-81
2022/09/29 09:40:28;;;;;;;3.63;0.52;;;16.90;99.90;;;;;;4935503;29;20028;-81
2022/09/29 09:43:12;;;;;;;8.13;1.00;;;16.80;99.90;;;;;;4945933;29;20062;-81
2022/09/29 09:45:56;;;;;;;4.22;0.57;;;16.80;99.90;;;;;;4930183;29;20039;-81
2022/09/29 09:48:40;;;;;;;13.00;1.13;;;16.80;99.90;;;;;;4928960;29;20040;-82
2022/09/29 09:51:46;;;;;;;4.03;0.60;;;16.80;99.90;;;;;;4932711;29;20102;-82
2022/09/29 09:54:33;;;;;;;5.30;0.63;;;17.00;99.90;;;;;;4925819;29;20556;-81
2022/09/29 09:57:18;;;;;;;9.85;1.15;;;17.10;99.90;;;;;;4933042;29;20173;-82
2022/09/29 09:59:56;;;;;;;11.60;1.38;;;17.30;99.90;;;;;;4939476;29;20035;-82
2022/09/29 10:02:23;;;;;;;6.03;0.70;;;17.40;99.90;;;;;;4945797;29;20452;-82
2022/09/29 10:04:52;;;;;;;2.60;0.60;;;17.30;99.90;;;;;;4936322;29;20516;-82
2022/09/29 10:07:24;;;;;;;4.40;0.82;;;17.40;99.90;;;;;;4938582;29;20015;-82
2022/09/29 10:09:51;;;;;;;6.45;0.75;;;17.50;99.90;;;;;;4940350;29;20086;-82
2022/09/29 10:12:19;;;;;;;5.00;0.60;;;17.60;99.90;;;;;;4925872;29;20020;-82
2022/09/29 10:15:11;;;;;;;2.78;0.63;;;17.60;99.90;;;;;;4947539;29;20031;-82
2022/09/29 10:17:41;;;;;;;3.63;0.68;;;17.70;99.90;;;;;;4940489;29;20027;-82
2022/09/29 10:20:08;;;;;;;7.32;0.88;;;17.80;99.90;;;;;;4937768;29;20084;-84
2022/09/29 10:22:35;;;;;;;5.72;1.05;;;17.70;99.90;;;;;;4945328;29;20101;-84
2022/09/29 10:25:18;;;;;;;4.28;0.90;;;17.60;99.90;;;;;;4934422;29;20030;-84
2022/09/29 10:27:50;;;;;;;3.15;0.60;;;17.50;99.90;;;;;;4939480;29;20538;-84
2022/09/29 10:30:22;;;;;;;9.95;1.10;;;17.60;99.90;;;;;;4942966;29;20086;-84
2022/09/29 10:32:50;;;;;;;5.57;1.20;;;17.70;99.90;;;;;;4947731;28;20102;-84
2022/09/29 10:35:43;;;;;;;7.38;0.80;;;17.70;99.90;;;;;;4953969;29;20089;-90
2022/09/29 10:38:24;;;;;;;6.45;0.93;;;17.60;99.90;;;;;;4951933;29;20106;-83
2022/09/29 10:40:58;;;;;;;8.23;1.25;;;17.50;99.90;;;;;;4954261;29;20042;-83
2022/09/29 10:43:43;;;;;;;10.80;0.70;;;17.40;99.90;;;;;;4949748;29;20090;-83
2022/09/29 10:46:45;;;;;;;5.45;0.80;;;17.50;99.90;;;;;;4945980;29;20028;-83
2022/09/29 10:49:19;;;;;;;6.97;1.10;;;17.30;99.90;;;;;;4945477;29;20046;-83
2022/09/29 10:52:04;;;;;;;5.55;0.93;;;17.50;99.90;;;;;;4949087;29;20485;-83
2022/09/29 10:54:33;;;;;;;5.95;1.23;;;17.60;99.90;;;;;;4953354;29;20075;-83
2022/09/29 10:57:10;;;;;;;6.47;1.42;;;17.50;99.90;;;;;;4953181;29;20023;-83
2022/09/29 10:59:45;;;;;;;3.60;0.70;;;17.70;99.90;;;;;;4954674;29;20024;-83
2022/09/29 11:02:23;;;;;;;7.20;1.55;;;18.20;99.90;;;;;;4941309;29;20050;-83
2022/09/29 11:04:50;;;;;;;7.45;0.90;;;18.00;99.90;;;;;;4935779;29;20030;-83
2022/09/29 11:07:16;;;;;;;6.15;0.80;;;17.70;99.90;;;;;;4935988;29;20027;-83
2022/09/29 11:09:44;;;;;;;6.13;1.08;;;17.60;99.90;;;;;;4935651;29;20039;-83
2022/09/29 11:12:39;;;;;;;8.80;1.00;;;17.90;99.90;;;;;;4940145;29;20016;-83
2022/09/29 11:15:22;;;;;;;;;;;17.80;99.90;;;;;;4930452;29;20085;-83
2022/09/29 11:17:50;;;;;;;5.00;0.70;;;17.50;99.90;;;;;;4930670;29;19913;-84
2022/09/29 11:20:17;;;;;;;4.07;0.80;;;17.50;99.90;;;;;;4938437;29;20026;-83
2022/09/29 11:23:01;;;;;;;8.65;0.90;;;17.60;99.90;;;;;;4937439;29;20079;-83
2022/09/29 11:26:04;;;;;;;8.25;1.13;;;17.70;99.90;;;;;;4935624;29;20023;-84
2022/09/29 11:28:59;;;;;;;6.05;0.90;;;17.90;99.90;;;;;;4935376;29;20125;-83
2022/09/29 11:31:33;;;;;;;4.07;0.68;;;18.00;99.90;;;;;;4921181;29;20069;-84
2022/09/29 11:34:20;;;;;;;5.75;1.13;;;18.30;99.90;;;;;;4919244;29;20026;-84
2022/09/29 11:36:53;;;;;;;4.65;0.82;;;18.40;99.90;;;;;;4930469;29;20031;-83
2022/09/29 11:39:43;;;;;;;7.32;1.02;;;18.30;99.90;;;;;;4935495;29;20039;-83
2022/09/29 11:42:21;;;;;;;8.52;1.38;;;18.40;99.90;;;;;;4934976;29;20019;-83
2022/09/29 11:45:06;;;;;;;4.88;0.90;;;18.30;99.90;;;;;;4920090;29;20031;-83
2022/09/29 11:47:31;;;;;;;;;;;18.00;99.90;;;;;;4949377;28;20020;-83
2022/09/29 11:50:35;;;;;;;5.13;1.05;;;17.80;99.90;;;;;;4925592;29;19917;-84
2022/09/29 11:53:18;;;;;;;5.80;0.88;;;17.60;99.90;;;;;;4952845;29;20035;-83
2022/09/29 11:55:46;;;;;;;6.55;1.02;;;17.50;99.90;;;;;;4952004;29;20427;-84
2022/09/29 11:58:30;;;;;;;7.05;1.30;;;17.30;99.90;;;;;;4925262;29;20042;-83
2022/09/29 12:01:17;;;;;;;5.55;0.88;;;17.30;99.90;;;;;;4938483;29;20464;-83
2022/09/29 12:04:21;;;;;;;6.85;0.88;;;17.30;99.90;;;;;;4942933;28;20161;-83
2022/09/29 12:06:53;;;;;;;5.57;1.13;;;17.40;99.90;;;;;;4882261;29;20089;-83
2022/09/29 12:09:52;;;;;;;4.43;1.02;;;17.30;99.90;;;;;;4946204;29;20043;-83
2022/09/29 12:12:54;;;;;;;4.97;0.77;;;17.40;99.90;;;;;;4935689;29;20026;-83
2022/09/29 12:15:55;;;;;;;5.72;0.93;;;17.30;99.90;;;;;;4939676;29;20428;-84
2022/09/29 12:18:30;;;;;;;8.95;1.08;;;17.40;99.90;;;;;;4916788;29;20518;-83
2022/09/29 12:20:57;;;;;;;4.70;0.73;;;17.60;99.90;;;;;;4942139;29;20064;-84
2022/09/29 12:23:26;;;;;;;5.97;0.80;;;17.90;99.90;;;;;;4937262;29;20028;-83
2022/09/29 12:26:03;;;;;;;3.50;0.90;;;17.70;99.90;;;;;;4935051;29;20031;-84
2022/09/29 12:28:46;;;;;;;4.72;1.30;;;17.70;99.90;;;;;;4930197;29;20420;-83
2022/09/29 12:31:24;;;;;;;8.02;0.98;;;18.10;99.90;;;;;;4952578;29;20042;-84
2022/09/29 12:33:56;;;;;;;7.82;0.90;;;18.30;99.90;;;;;;4939163;29;20106;-84
2022/09/29 12:36:42;;;;;;;3.92;0.80;;;18.60;99.90;;;;;;4941333;29;20024;-83
2022/09/29 12:39:28;;;;;;;4.32;0.77;;;18.80;99.90;;;;;;4942329;29;20032;-84
2022/09/29 12:42:01;;;;;;;8.48;1.50;;;18.90;99.90;;;;;;4915828;29;20118;-84
2022/09/29 12:44:37;;;;;;;6.35;1.23;;;18.90;99.90;;;;;;4946346;29;20019;-84
2022/09/29 12:47:21;;;;;;;6.30;1.02;;;18.80;99.90;;;;;;4939458;29;20043;-84
2022/09/29 12:50:00;;;;;;;4.47;1.10;;;18.90;99.90;;;;;;4950560;29;20039;-84
2022/09/29 12:52:32;;;;;;;7.68;0.90;;;19.20;99.90;;;;;;4948764;29;20428;-83
2022/09/29 12:55:03;;;;;;;6.75;0.77;;;19.10;99.90;;;;;;4941563;28;20023;-83
2022/09/29 12:57:37;;;;;;;6.68;0.93;;;19.10;99.90;;;;;;4950276;28;20023;-84
2022/09/29 13:00:13;;;;;;;6.13;0.90;;;19.30;99.90;;;;;;4932516;29;20035;-84
2022/09/29 13:03:01;;;;;;;8.52;1.20;;;19.60;99.90;;;;;;4938532;29;20058;-87
2022/09/29 13:05:45;;;;;;;5.70;0.80;;;19.40;99.90;;;;;;4928054;29;20012;-84
2022/09/29 13:08:29;;;;;;;4.47;0.82;;;19.40;99.90;;;;;;4929803;29;20066;-84
2022/09/29 13:11:21;;;;;;;8.30;1.20;;;19.50;99.90;;;;;;4933542;29;20042;-84
2022/09/29 13:13:51;;;;;;;3.78;1.10;;;19.50;99.90;;;;;;4933365;29;20016;-84
2022/09/29 13:16:35;;;;;;;3.55;0.90;;;19.40;99.90;;;;;;4938468;29;20055;-83